createdAt,value
2019-01-10T00:02:19.668Z,4.43
2019-01-10T00:05:00.589Z,3.57
2019-01-10T00:07:41.183Z,5.43
2019-01-10T00:10:22.749Z,6.37
2019-01-10T00:13:03.944Z,4.30
2019-01-10T00:15:42.787Z,5.53
2019-01-10T00:18:30.721Z,5.80
2019-01-10T00:21:18.632Z,3.70
2019-01-10T00:24:06.432Z,4.17
2019-01-10T00:26:54.369Z,6.13
2019-01-10T00:29:42.239Z,4.53
2019-01-10T00:32:30.437Z,4.27
2019-01-10T00:35:18.306Z,4.43
2019-01-10T00:38:06.166Z,5.43
2019-01-10T00:40:54.073Z,7.97
2019-01-10T00:43:41.991Z,4.43
2019-01-10T00:46:23.190Z,5.33
2019-01-10T00:49:03.822Z,4.97
2019-01-10T00:51:45.071Z,3.07
2019-01-10T00:54:25.910Z,4.37
2019-01-10T00:57:06.741Z,3.50
2019-01-10T00:59:47.249Z,5.27
2019-01-10T01:02:28.225Z,6.23
2019-01-10T01:05:09.226Z,5.90
2019-01-10T01:07:49.755Z,5.67
2019-01-10T01:10:30.325Z,8.67
2019-01-10T01:13:10.654Z,5.90
2019-01-10T01:15:51.140Z,4.33
2019-01-10T01:18:32.000Z,5.30
2019-01-10T01:21:12.786Z,5.50
2019-01-10T01:23:53.539Z,3.47
2019-01-10T01:26:34.462Z,4.47
2019-01-10T01:29:15.178Z,3.83
2019-01-10T01:31:56.503Z,7.00
2019-01-10T01:34:36.790Z,4.00
2019-01-10T01:37:17.656Z,5.93
2019-01-10T01:39:58.591Z,3.60
2019-01-10T01:42:39.196Z,4.90
2019-01-10T01:45:19.518Z,4.63
2019-01-10T01:48:00.461Z,3.47
2019-01-10T01:50:41.296Z,4.90
2019-01-10T01:53:22.254Z,5.67
2019-01-10T01:56:03.078Z,4.17
2019-01-10T01:58:43.907Z,4.50
2019-01-10T02:01:24.796Z,7.57
2019-01-10T02:04:05.698Z,4.33
2019-01-10T02:06:46.596Z,4.73
2019-01-10T02:09:26.018Z,5.20
2019-01-10T02:12:13.922Z,5.23
2019-01-10T02:15:01.840Z,4.37
2019-01-10T02:17:49.706Z,4.43
2019-01-10T02:20:37.546Z,4.73
2019-01-10T02:23:25.369Z,3.77
2019-01-10T02:26:13.304Z,5.30
2019-01-10T02:29:01.178Z,5.37
2019-01-10T02:31:49.042Z,5.43
2019-01-10T02:34:36.921Z,4.87
2019-01-10T02:37:24.759Z,7.13
2019-01-10T02:40:13.121Z,4.93
2019-01-10T02:43:01.032Z,8.97
2019-01-10T02:45:48.855Z,5.97
2019-01-10T02:48:30.192Z,4.43
2019-01-10T02:51:11.122Z,5.70
2019-01-10T02:53:51.644Z,5.77
2019-01-10T02:56:32.509Z,3.77
2019-01-10T02:59:13.329Z,7.07
2019-01-10T03:01:53.910Z,4.93
2019-01-10T03:04:34.910Z,4.40
2019-01-10T03:07:15.975Z,5.03
2019-01-10T03:09:54.805Z,7.53
2019-01-10T03:12:42.726Z,6.77
2019-01-10T03:15:30.641Z,4.60
2019-01-10T03:18:18.518Z,5.93
2019-01-10T03:21:06.440Z,7.80
2019-01-10T03:27:01.135Z,8.27
2019-01-10T03:29:49.042Z,6.07
2019-01-10T03:32:36.969Z,5.73
2019-01-10T03:38:31.763Z,6.67
2019-01-10T03:41:19.640Z,7.77
2019-01-10T03:44:07.472Z,6.27
2019-01-10T03:46:47.816Z,8.30
2019-01-10T03:49:28.548Z,8.03
2019-01-10T03:52:09.056Z,6.27
2019-01-10T03:54:49.451Z,8.07
2019-01-10T03:57:29.954Z,7.80
2019-01-10T04:00:10.420Z,7.57
2019-01-10T04:02:51.050Z,7.47
2019-01-10T04:05:33.907Z,5.50
2019-01-10T04:08:14.490Z,7.53
2019-01-10T04:10:54.977Z,11.27
2019-01-10T04:13:36.134Z,6.03
2019-01-10T04:16:17.244Z,6.37
2019-01-10T04:18:58.412Z,7.37
2019-01-10T04:21:38.949Z,8.00
2019-01-10T04:24:19.217Z,9.47
2019-01-10T04:26:59.839Z,6.07
2019-01-10T04:29:41.013Z,8.07
2019-01-10T04:32:21.464Z,10.77
2019-01-10T04:35:02.519Z,8.27
2019-01-10T04:37:43.586Z,9.73
2019-01-10T04:40:24.338Z,8.73
2019-01-10T04:43:05.456Z,8.47
2019-01-10T04:45:45.981Z,6.03
2019-01-10T04:48:27.146Z,9.33
2019-01-10T04:51:07.564Z,6.63
2019-01-10T04:53:48.220Z,5.57
2019-01-10T04:56:29.262Z,4.90
2019-01-10T04:59:08.054Z,10.63
2019-01-10T05:01:55.880Z,7.43
2019-01-10T05:04:43.702Z,8.03
2019-01-10T05:07:31.493Z,9.47
2019-01-10T05:10:19.386Z,7.70
2019-01-10T05:13:07.260Z,9.87
2019-01-10T05:15:55.116Z,7.93
2019-01-10T05:18:43.004Z,6.70
2019-01-10T05:21:30.898Z,6.90
2019-01-10T05:24:18.733Z,9.13
2019-01-10T05:26:59.293Z,9.20
2019-01-10T05:29:40.239Z,10.63
2019-01-10T05:32:20.797Z,7.17
2019-01-10T05:35:01.264Z,8.17
2019-01-10T05:37:42.337Z,5.60
2019-01-10T05:40:23.184Z,6.13
2019-01-10T05:43:04.116Z,5.57
2019-01-10T05:45:44.521Z,6.23
2019-01-10T05:48:25.063Z,10.43
2019-01-10T05:51:05.750Z,7.83
2019-01-10T05:53:46.594Z,6.00
2019-01-10T05:56:27.106Z,7.27
2019-01-10T05:59:08.083Z,11.50
2019-01-10T06:01:49.279Z,8.10
2019-01-10T06:04:29.665Z,11.43
2019-01-10T06:07:11.237Z,5.73
2019-01-10T06:09:52.009Z,7.60
2019-01-10T06:12:32.743Z,8.13
2019-01-10T06:15:13.301Z,9.60
2019-01-10T06:17:54.309Z,9.97
2019-01-10T06:20:34.970Z,7.60
2019-01-10T06:23:17.910Z,8.77
2019-01-10T06:25:58.429Z,11.07
2019-01-10T06:28:39.697Z,9.33
2019-01-10T06:31:20.681Z,9.33
2019-01-10T06:34:00.997Z,9.00
2019-01-10T06:36:40.603Z,7.42
2019-01-10T06:39:28.426Z,8.77
2019-01-10T06:42:16.333Z,7.47
2019-01-10T06:45:24.993Z,10.13
2019-01-10T06:48:12.903Z,9.13
2019-01-10T06:51:00.777Z,8.33
2019-01-10T06:53:48.677Z,7.90
2019-01-10T06:56:36.509Z,12.43
2019-01-10T06:59:24.385Z,10.13
2019-01-10T07:02:12.195Z,10.00
2019-01-10T07:05:19.315Z,8.00
2019-01-10T07:08:07.204Z,7.93
2019-01-10T07:10:55.085Z,7.40
2019-01-10T07:13:42.921Z,7.60
2019-01-10T07:16:30.796Z,9.97
2019-01-10T07:19:39.432Z,9.07
2019-01-10T07:22:27.316Z,9.63
2019-01-10T07:25:15.207Z,9.03
2019-01-10T07:27:56.722Z,13.63
2019-01-10T07:30:37.783Z,9.10
2019-01-10T07:33:18.032Z,9.03
2019-01-10T07:35:58.896Z,9.07
2019-01-10T07:38:39.667Z,13.40
2019-01-10T07:41:20.337Z,9.87
2019-01-10T07:44:00.808Z,8.37
2019-01-10T07:46:41.845Z,9.23
2019-01-10T07:49:22.472Z,10.03
2019-01-10T07:52:03.458Z,9.47
2019-01-10T07:54:44.179Z,8.57
2019-01-10T07:57:24.595Z,10.40
2019-01-10T08:00:05.019Z,9.83
2019-01-10T08:02:46.299Z,9.20
2019-01-10T08:05:27.258Z,9.13
2019-01-10T08:08:07.834Z,11.30
2019-01-10T08:10:48.859Z,9.27
2019-01-10T08:13:29.894Z,13.63
2019-01-10T08:16:10.305Z,10.50
2019-01-10T08:18:51.540Z,9.48
2019-01-10T08:21:32.832Z,9.73
2019-01-10T08:24:13.895Z,10.30
2019-01-10T08:26:55.128Z,11.63
2019-01-10T08:29:35.543Z,10.73
2019-01-10T08:32:16.709Z,10.73
2019-01-10T08:34:57.069Z,11.90
2019-01-10T08:37:37.789Z,8.80
2019-01-10T08:40:18.891Z,8.50
2019-01-10T08:43:00.887Z,8.97
2019-01-10T08:45:41.715Z,10.93
2019-01-10T08:48:22.025Z,11.40
2019-01-10T08:51:03.017Z,8.60
2019-01-10T08:53:43.515Z,10.83
2019-01-10T08:56:24.567Z,11.37
2019-01-10T08:59:05.379Z,10.43
2019-01-10T09:01:46.637Z,10.57
2019-01-10T09:04:27.225Z,9.93
2019-01-10T09:07:07.999Z,8.97
2019-01-10T09:09:49.382Z,11.37
2019-01-10T09:12:30.551Z,10.63
2019-01-10T09:15:11.681Z,7.50
2019-01-10T09:17:41.473Z,7.10
2019-01-10T09:20:12.972Z,10.17
2019-01-10T09:22:41.605Z,10.50
2019-01-10T09:25:29.719Z,9.70
2019-01-10T09:28:18.052Z,9.17
2019-01-10T09:33:59.695Z,9.63
2019-01-10T09:36:47.711Z,9.03
2019-01-10T09:39:47.192Z,9.93
2019-01-10T09:42:37.077Z,8.53
2019-01-10T09:45:42.836Z,7.80
2019-01-10T09:51:30.878Z,7.03
2019-01-10T09:54:18.906Z,10.13
2019-01-10T09:57:06.858Z,8.10
2019-01-10T09:59:54.872Z,7.03
2019-01-10T10:02:42.983Z,13.07
2019-01-10T10:05:11.620Z,11.80
2019-01-10T10:07:59.701Z,9.00
2019-01-10T10:11:01.728Z,6.57
2019-01-10T10:13:37.263Z,10.60
2019-01-10T10:16:25.110Z,10.17
2019-01-10T10:19:06.237Z,6.93
2019-01-10T10:21:47.158Z,6.20
2019-01-10T10:24:27.961Z,11.70
2019-01-10T10:27:08.332Z,11.10
2019-01-10T10:29:49.531Z,7.20
2019-01-10T10:32:28.863Z,6.80
2019-01-10T10:35:17.126Z,9.60
2019-01-10T10:38:05.089Z,11.17
2019-01-10T10:44:01.403Z,11.03
2019-01-10T10:46:49.239Z,8.77
2019-01-10T10:49:37.118Z,8.70
2019-01-10T10:54:03.370Z,9.73
2019-01-10T10:56:31.901Z,6.57
2019-01-10T10:59:00.393Z,8.53
2019-01-10T11:01:28.917Z,8.93
2019-01-10T11:03:57.458Z,8.13
2019-01-10T11:06:26.013Z,8.37
2019-01-10T11:08:54.559Z,7.37
2019-01-10T11:11:23.105Z,7.40
2019-01-10T11:13:51.719Z,11.30
2019-01-10T11:16:20.170Z,8.10
2019-01-10T11:18:48.678Z,8.13
2019-01-10T11:21:17.208Z,9.87
2019-01-10T11:23:45.694Z,9.80
2019-01-10T11:26:14.253Z,10.43
2019-01-10T11:28:42.789Z,10.93
2019-01-10T11:31:11.263Z,13.57
2019-01-10T11:33:59.140Z,6.93
2019-01-10T11:36:27.623Z,8.90
2019-01-10T11:38:56.329Z,8.33
2019-01-10T11:41:24.906Z,8.90
2019-01-10T11:43:53.481Z,10.47
2019-01-10T11:46:23.009Z,7.67
2019-01-10T11:48:51.528Z,9.60
2019-01-10T11:51:20.090Z,11.80
2019-01-10T11:53:48.567Z,11.07
2019-01-10T11:56:17.143Z,8.30
2019-01-10T11:58:45.689Z,11.30
2019-01-10T12:01:14.352Z,12.33
2019-01-10T12:03:42.903Z,9.37
2019-01-10T12:06:11.527Z,9.87
2019-01-10T12:08:40.057Z,11.63
2019-01-10T12:11:08.524Z,8.67
2019-01-10T12:13:37.006Z,10.70
2019-01-10T12:16:05.698Z,12.10
2019-01-10T12:18:34.237Z,7.63
2019-01-10T12:21:02.713Z,7.00
2019-01-10T12:23:31.271Z,8.53
2019-01-10T12:25:59.844Z,7.87
2019-01-10T12:28:28.371Z,9.07
2019-01-10T12:30:56.835Z,8.13
2019-01-10T12:33:25.313Z,8.57
2019-01-10T12:35:53.785Z,7.23
2019-01-10T12:38:22.367Z,5.90
2019-01-10T12:40:50.918Z,6.53
2019-01-10T12:43:19.476Z,8.73
2019-01-10T12:45:47.968Z,7.67
2019-01-10T12:48:16.573Z,4.97
2019-01-10T12:50:45.057Z,7.27
2019-01-10T12:53:13.882Z,6.50
2019-01-10T12:55:42.380Z,8.78
2019-01-10T12:58:10.969Z,6.67
2019-01-10T13:00:39.498Z,9.37
2019-01-10T13:03:08.355Z,8.20
2019-01-10T13:05:37.821Z,10.40
2019-01-10T13:08:06.777Z,6.90
2019-01-10T13:10:35.219Z,11.73
2019-01-10T13:13:03.854Z,11.13
2019-01-10T13:15:32.409Z,12.53
2019-01-10T13:18:00.959Z,9.87
2019-01-10T13:20:29.499Z,11.67
2019-01-10T13:22:58.075Z,8.80
2019-01-10T13:25:26.639Z,10.17
2019-01-10T13:27:57.218Z,15.70
2019-01-10T13:30:25.640Z,12.17
2019-01-10T13:32:54.460Z,12.90
2019-01-10T13:35:23.060Z,13.93
2019-01-10T13:37:51.663Z,17.00
2019-01-10T13:40:20.169Z,13.47
2019-01-10T13:42:48.693Z,14.13
2019-01-10T13:45:18.778Z,10.70
2019-01-10T13:47:50.579Z,13.63
2019-01-10T13:50:21.916Z,13.43
2019-01-10T13:52:50.398Z,10.73
2019-01-10T13:55:20.011Z,12.93
2019-01-10T13:57:48.552Z,15.87
2019-01-10T14:00:20.047Z,12.80
2019-01-10T14:02:48.575Z,14.50
2019-01-10T14:05:17.129Z,12.13
2019-01-10T14:07:45.785Z,12.47
2019-01-10T14:10:16.640Z,12.53
2019-01-10T14:12:45.296Z,13.33
2019-01-10T14:15:19.952Z,9.93
2019-01-10T14:17:48.484Z,8.93
2019-01-10T14:20:17.225Z,8.70
2019-01-10T14:22:45.757Z,9.10
2019-01-10T14:25:14.304Z,7.47
2019-01-10T14:27:42.830Z,11.27
2019-01-10T14:30:21.127Z,10.33
2019-01-10T14:32:49.755Z,7.80
2019-01-10T14:35:18.849Z,6.83
2019-01-10T14:37:47.520Z,8.40
2019-01-10T14:40:16.167Z,8.00
2019-01-10T14:42:44.777Z,9.53
2019-01-10T14:45:15.854Z,6.20
2019-01-10T14:47:44.348Z,7.37
2019-01-10T14:50:13.820Z,7.60
2019-01-10T14:52:42.816Z,10.70
2019-01-10T14:55:13.134Z,9.87
2019-01-10T14:57:41.868Z,6.67
2019-01-10T15:00:24.151Z,5.53
2019-01-10T15:02:52.700Z,6.00
2019-01-10T15:05:21.296Z,3.77
2019-01-10T15:07:49.935Z,7.10
2019-01-10T15:10:18.637Z,5.23
2019-01-10T15:12:47.778Z,9.10
2019-01-10T15:15:21.354Z,7.37
2019-01-10T15:17:50.346Z,6.07
2019-01-10T15:20:21.641Z,5.77
2019-01-10T15:22:50.358Z,8.07
2019-01-10T15:25:18.886Z,6.13
2019-01-10T15:27:47.430Z,8.93
2019-01-10T15:30:24.057Z,6.30
2019-01-10T15:32:52.671Z,7.60
2019-01-10T15:35:21.203Z,9.13
2019-01-10T15:37:49.709Z,7.07
2019-01-10T15:40:21.518Z,5.67
2019-01-10T15:42:51.729Z,7.93
2019-01-10T15:45:20.330Z,4.57
2019-01-10T15:47:48.800Z,9.33
2019-01-10T15:50:19.017Z,8.63
2019-01-10T15:52:47.721Z,12.33
2019-01-10T15:55:18.331Z,9.67
2019-01-10T15:57:46.881Z,7.70
2019-01-10T16:00:23.442Z,7.33
2019-01-10T16:02:53.815Z,7.40
2019-01-10T16:05:22.420Z,9.33
2019-01-10T16:07:52.845Z,7.37
2019-01-10T16:10:21.494Z,6.10
2019-01-10T16:12:50.370Z,6.57
2019-01-10T16:15:22.616Z,5.47
2019-01-10T16:17:51.069Z,8.23
2019-01-10T16:20:19.617Z,5.77
2019-01-10T16:22:48.307Z,7.13
2019-01-10T16:25:19.679Z,7.67
2019-01-10T16:27:48.623Z,9.73
2019-01-10T16:30:22.366Z,9.57
2019-01-10T16:32:51.062Z,9.60
2019-01-10T16:35:19.614Z,9.63
2019-01-10T16:37:48.318Z,9.57
2019-01-10T16:40:18.323Z,12.43
2019-01-10T16:42:50.267Z,9.80
2019-01-10T16:45:21.464Z,6.67
2019-01-10T16:47:50.010Z,8.50
2019-01-10T16:50:18.581Z,6.53
2019-01-10T16:52:48.055Z,6.17
2019-01-10T16:55:16.691Z,8.47
2019-01-10T16:57:45.234Z,9.67
2019-01-10T17:00:22.630Z,8.67
2019-01-10T17:02:51.167Z,8.80
2019-01-10T17:05:21.357Z,6.70
2019-01-10T17:07:50.192Z,10.03
2019-01-10T17:10:18.808Z,5.83
2019-01-10T17:12:47.445Z,7.90
2019-01-10T17:15:16.823Z,6.40
2019-01-10T17:17:46.341Z,9.27
2019-01-10T17:20:20.410Z,9.70
2019-01-10T17:22:49.508Z,6.73
2019-01-10T17:25:18.811Z,10.43
2019-01-10T17:27:47.610Z,7.63
2019-01-10T17:30:24.617Z,8.37
2019-01-10T17:32:53.306Z,9.93
2019-01-10T17:35:24.620Z,10.53
2019-01-10T17:37:53.273Z,7.43
2019-01-10T17:40:22.970Z,6.03
2019-01-10T17:42:52.054Z,5.60
2019-01-10T17:45:23.401Z,5.97
2019-01-10T17:47:52.132Z,6.30
2019-01-10T17:50:20.863Z,6.90
2019-01-10T17:52:49.454Z,7.90
2019-01-10T17:55:18.009Z,5.63
2019-01-10T17:57:46.567Z,4.03
2019-01-10T18:00:19.626Z,6.47
2019-01-10T18:02:48.211Z,10.50
2019-01-10T18:05:16.794Z,8.43
2019-01-10T18:07:45.370Z,5.40
2019-01-10T18:10:16.270Z,5.33
2019-01-10T18:12:44.830Z,3.83
2019-01-10T18:15:18.702Z,4.13
2019-01-10T18:17:50.495Z,6.40
2019-01-10T18:20:26.346Z,5.00
2019-01-10T18:22:55.398Z,2.87
2019-01-10T18:25:24.123Z,4.33
2019-01-10T18:27:52.790Z,4.23
2019-01-10T18:30:25.017Z,4.87
2019-01-10T18:32:53.558Z,5.53
2019-01-10T18:35:26.402Z,4.70
2019-01-10T18:37:53.332Z,7.37
2019-01-10T18:40:22.835Z,6.73
2019-01-10T18:42:51.397Z,5.67
2019-01-10T18:45:28.444Z,4.83
2019-01-10T18:47:57.539Z,4.70
2019-01-10T18:50:26.435Z,4.50
2019-01-10T18:52:54.983Z,6.50
2019-01-10T18:55:23.658Z,3.13
2019-01-10T18:57:52.231Z,3.43
2019-01-10T19:00:26.259Z,3.43
2019-01-10T19:02:56.009Z,5.67
2019-01-10T19:05:24.749Z,4.03
2019-01-10T19:07:53.573Z,5.40
2019-01-10T19:10:24.972Z,4.73
2019-01-10T19:12:55.068Z,4.53
2019-01-10T19:15:23.811Z,5.70
2019-01-10T19:17:53.620Z,6.70
2019-01-10T19:20:26.749Z,6.50
2019-01-10T19:22:56.550Z,4.50
2019-01-10T19:25:25.134Z,6.83
2019-01-10T19:27:56.735Z,4.20
2019-01-10T19:30:27.532Z,5.50
2019-01-10T19:32:56.142Z,4.73
2019-01-10T19:35:24.702Z,4.27
2019-01-10T19:37:53.544Z,4.33
2019-01-10T19:40:22.938Z,3.77
2019-01-10T19:42:51.610Z,3.13
2019-01-10T19:45:22.044Z,4.57
2019-01-10T19:47:52.113Z,8.33
2019-01-10T19:50:24.537Z,4.77
2019-01-10T19:52:55.053Z,5.13
2019-01-10T19:55:23.944Z,5.43
2019-01-10T19:57:52.934Z,4.53
2019-01-10T20:00:28.625Z,4.53
2019-01-10T20:02:57.620Z,4.77
2019-01-10T20:05:27.631Z,4.50
2019-01-10T20:07:57.261Z,4.13
2019-01-10T20:10:25.906Z,4.27
2019-01-10T20:12:55.343Z,4.13
2019-01-10T20:15:23.958Z,5.37
2019-01-10T20:17:52.534Z,3.93
2019-01-10T20:20:27.058Z,4.50
2019-01-10T20:22:55.757Z,3.63
2019-01-10T20:25:28.586Z,3.67
2019-01-10T20:27:58.791Z,4.50
2019-01-10T20:30:27.477Z,7.87
2019-01-10T20:32:56.574Z,8.10
2019-01-10T20:35:25.283Z,8.37
2019-01-10T20:37:53.845Z,9.50
2019-01-10T20:40:22.515Z,9.10
2019-01-10T20:42:51.336Z,7.13
2019-01-10T20:45:20.218Z,7.40
2019-01-10T20:47:49.549Z,7.63
2019-01-10T20:50:18.808Z,8.70
2019-01-10T20:52:47.501Z,11.00
2019-01-10T20:55:17.901Z,8.65
2019-01-10T20:57:46.608Z,10.40
2019-01-10T21:00:23.193Z,9.00
2019-01-10T21:02:51.809Z,9.20
2019-01-10T21:05:20.403Z,11.47
2019-01-10T21:07:49.951Z,11.53
2019-01-10T21:10:20.224Z,13.43
2019-01-10T21:12:50.087Z,13.13
2019-01-10T21:15:26.678Z,11.37
2019-01-10T21:17:55.659Z,12.80
2019-01-10T21:20:24.228Z,12.27
2019-01-10T21:22:53.530Z,13.23
2019-01-10T21:25:22.179Z,13.93
2019-01-10T21:27:50.755Z,13.60
2019-01-10T21:30:21.779Z,14.60
2019-01-10T21:32:50.429Z,17.23
2019-01-10T21:35:19.712Z,14.57
2019-01-10T21:37:48.359Z,14.10
2019-01-10T21:40:20.057Z,13.50
2019-01-10T21:42:49.530Z,14.47
2019-01-10T21:45:21.627Z,14.10
2019-01-10T21:47:50.282Z,14.50
2019-01-10T21:50:23.599Z,15.23
2019-01-10T21:52:53.150Z,15.40
2019-01-10T21:55:23.362Z,15.00
2019-01-10T21:57:51.935Z,16.93
2019-01-10T22:00:31.653Z,15.63
2019-01-10T22:03:00.858Z,14.90
2019-01-10T22:05:29.484Z,17.20
2019-01-10T22:07:58.227Z,16.23
2019-01-10T22:10:27.967Z,16.13
2019-01-10T22:12:56.650Z,17.93
2019-01-10T22:15:25.292Z,18.40
2019-01-10T22:17:53.874Z,19.90
2019-01-10T22:20:22.660Z,20.80
2019-01-10T22:22:51.232Z,20.90
2019-01-10T22:25:20.064Z,22.13
2019-01-10T22:27:48.618Z,20.47
2019-01-10T22:30:19.911Z,19.73
2019-01-10T22:32:48.521Z,20.07
2019-01-10T22:35:18.842Z,21.70
2019-01-10T22:37:47.478Z,22.40
2019-01-10T22:40:20.650Z,20.97
2019-01-10T22:42:49.167Z,21.87
2019-01-10T22:45:18.353Z,22.77
2019-01-10T22:47:48.123Z,23.67
2019-01-10T22:50:18.649Z,24.57
2019-01-10T22:52:47.134Z,21.33
2019-01-10T22:55:16.946Z,22.20
2019-01-10T22:57:45.557Z,23.37
2019-01-10T23:00:30.972Z,22.20
2019-01-10T23:03:08.146Z,22.40
2019-01-10T23:05:44.024Z,22.97
2019-01-10T23:08:12.580Z,24.07
2019-01-10T23:10:41.150Z,22.42
2019-01-10T23:13:09.711Z,21.93
2019-01-10T23:15:38.248Z,22.60
2019-01-10T23:18:07.739Z,21.30
2019-01-10T23:20:36.515Z,22.90
2019-01-10T23:23:07.866Z,22.10
2019-01-10T23:25:36.500Z,24.63
2019-01-10T23:28:05.713Z,21.97
2019-01-10T23:30:57.445Z,21.47
2019-01-10T23:33:26.774Z,21.07
2019-01-10T23:36:00.627Z,20.97
2019-01-10T23:38:29.635Z,23.07
2019-01-10T23:40:58.748Z,21.77
2019-01-10T23:43:27.363Z,20.70
2019-01-10T23:45:55.841Z,20.07
2019-01-10T23:48:24.483Z,18.43
2019-01-10T23:50:53.014Z,21.43
2019-01-10T23:53:21.586Z,19.37
2019-01-10T23:55:50.121Z,18.70
2019-01-10T23:58:18.819Z,19.27
